sensor_id;sensor_type;location;lat;lon;timestamp;temperature;humidity
33841;DHT22;20142;28.494;-16.312;2024-02-23T00:03:08;16.40;90.70
33841;DHT22;20142;28.494;-16.312;2024-02-23T00:08:11;16.30;90.60
33841;DHT22;20142;28.494;-16.312;2024-02-23T00:13:13;16.30;90.70
33841;DHT22;20142;28.494;-16.312;2024-02-23T00:18:15;16.30;90.80
33841;DHT22;20142;28.494;-16.312;2024-02-23T00:23:18;16.30;90.60
33841;DHT22;20142;28.494;-16.312;2024-02-23T00:28:20;16.20;89.70
33841;DHT22;20142;28.494;-16.312;2024-02-23T00:33:22;16.20;89.90
33841;DHT22;20142;28.494;-16.312;2024-02-23T00:38:24;16.20;89.90
33841;DHT22;20142;28.494;-16.312;2024-02-23T00:43:26;16.20;89.90
33841;DHT22;20142;28.494;-16.312;2024-02-23T00:48:30;16.20;90.00
33841;DHT22;20142;28.494;-16.312;2024-02-23T00:53:32;16.20;89.50
33841;DHT22;20142;28.494;-16.312;2024-02-23T00:58:33;16.20;90.00
33841;DHT22;20142;28.494;-16.312;2024-02-23T01:03:35;16.10;90.20
33841;DHT22;20142;28.494;-16.312;2024-02-23T01:08:37;16.00;90.20
33841;DHT22;20142;28.494;-16.312;2024-02-23T01:13:38;16.00;90.10
33841;DHT22;20142;28.494;-16.312;2024-02-23T01:18:40;16.00;89.90
33841;DHT22;20142;28.494;-16.312;2024-02-23T01:23:42;15.90;89.60
33841;DHT22;20142;28.494;-16.312;2024-02-23T01:28:43;15.80;89.60
33841;DHT22;20142;28.494;-16.312;2024-02-23T01:33:45;15.80;89.70
33841;DHT22;20142;28.494;-16.312;2024-02-23T01:38:47;15.80;89.90
33841;DHT22;20142;28.494;-16.312;2024-02-23T01:43:48;15.90;90.30
33841;DHT22;20142;28.494;-16.312;2024-02-23T01:48:50;15.80;90.60
33841;DHT22;20142;28.494;-16.312;2024-02-23T01:53:52;15.90;90.60
33841;DHT22;20142;28.494;-16.312;2024-02-23T01:58:55;15.90;90.30
33841;DHT22;20142;28.494;-16.312;2024-02-23T02:03:58;15.80;90.00
33841;DHT22;20142;28.494;-16.312;2024-02-23T02:09:00;15.80;89.90
33841;DHT22;20142;28.494;-16.312;2024-02-23T02:14:02;15.80;90.20
33841;DHT22;20142;28.494;-16.312;2024-02-23T02:19:04;15.80;90.10
33841;DHT22;20142;28.494;-16.312;2024-02-23T02:24:06;15.80;89.50
33841;DHT22;20142;28.494;-16.312;2024-02-23T02:29:09;15.80;89.50
33841;DHT22;20142;28.494;-16.312;2024-02-23T02:34:10;15.80;89.40
33841;DHT22;20142;28.494;-16.312;2024-02-23T02:39:14;15.80;89.50
33841;DHT22;20142;28.494;-16.312;2024-02-23T02:44:16;15.70;89.60
33841;DHT22;20142;28.494;-16.312;2024-02-23T02:49:17;15.70;89.70
33841;DHT22;20142;28.494;-16.312;2024-02-23T02:54:19;15.80;89.60
33841;DHT22;20142;28.494;-16.312;2024-02-23T02:59:21;15.80;89.40
33841;DHT22;20142;28.494;-16.312;2024-02-23T03:04:22;15.80;89.40
33841;DHT22;20142;28.494;-16.312;2024-02-23T03:09:24;15.70;89.50
33841;DHT22;20142;28.494;-16.312;2024-02-23T03:14:26;15.70;89.40
33841;DHT22;20142;28.494;-16.312;2024-02-23T03:19:27;15.60;89.40
33841;DHT22;20142;28.494;-16.312;2024-02-23T03:24:29;15.60;89.60
33841;DHT22;20142;28.494;-16.312;2024-02-23T03:29:31;15.60;90.00
33841;DHT22;20142;28.494;-16.312;2024-02-23T03:34:33;15.60;90.50
33841;DHT22;20142;28.494;-16.312;2024-02-23T03:39:34;15.60;91.10
33841;DHT22;20142;28.494;-16.312;2024-02-23T03:44:38;15.60;91.60
33841;DHT22;20142;28.494;-16.312;2024-02-23T03:49:39;15.60;91.60
33841;DHT22;20142;28.494;-16.312;2024-02-23T03:54:41;15.60;91.60
33841;DHT22;20142;28.494;-16.312;2024-02-23T03:59:55;15.50;91.30
33841;DHT22;20142;28.494;-16.312;2024-02-23T04:04:57;15.40;91.00
33841;DHT22;20142;28.494;-16.312;2024-02-23T04:09:58;15.40;90.80
33841;DHT22;20142;28.494;-16.312;2024-02-23T04:15:00;15.30;90.80
33841;DHT22;20142;28.494;-16.312;2024-02-23T04:20:06;15.40;91.50
33841;DHT22;20142;28.494;-16.312;2024-02-23T04:25:09;15.50;91.30
33841;DHT22;20142;28.494;-16.312;2024-02-23T04:30:11;15.50;91.60
33841;DHT22;20142;28.494;-16.312;2024-02-23T04:35:13;15.50;91.70
33841;DHT22;20142;28.494;-16.312;2024-02-23T04:40:15;15.50;91.70
33841;DHT22;20142;28.494;-16.312;2024-02-23T04:45:17;15.40;91.80
33841;DHT22;20142;28.494;-16.312;2024-02-23T04:50:19;15.40;92.10
33841;DHT22;20142;28.494;-16.312;2024-02-23T04:55:20;15.30;92.10
33841;DHT22;20142;28.494;-16.312;2024-02-23T05:05:26;15.30;91.50
33841;DHT22;20142;28.494;-16.312;2024-02-23T05:10:28;15.30;91.40
33841;DHT22;20142;28.494;-16.312;2024-02-23T05:15:29;15.20;91.30
33841;DHT22;20142;28.494;-16.312;2024-02-23T05:20:31;15.20;91.20
33841;DHT22;20142;28.494;-16.312;2024-02-23T05:25:33;15.20;90.80
33841;DHT22;20142;28.494;-16.312;2024-02-23T05:30:35;15.20;90.70
33841;DHT22;20142;28.494;-16.312;2024-02-23T05:35:38;15.20;90.40
33841;DHT22;20142;28.494;-16.312;2024-02-23T05:40:39;15.20;90.50
33841;DHT22;20142;28.494;-16.312;2024-02-23T05:45:41;15.20;90.10
33841;DHT22;20142;28.494;-16.312;2024-02-23T05:50:43;15.30;90.00
33841;DHT22;20142;28.494;-16.312;2024-02-23T05:55:45;15.30;90.00
33841;DHT22;20142;28.494;-16.312;2024-02-23T06:00:47;15.40;89.90
33841;DHT22;20142;28.494;-16.312;2024-02-23T06:05:48;15.40;89.90
33841;DHT22;20142;28.494;-16.312;2024-02-23T06:10:50;15.40;89.60
33841;DHT22;20142;28.494;-16.312;2024-02-23T06:15:52;15.60;90.10
33841;DHT22;20142;28.494;-16.312;2024-02-23T06:20:54;15.60;89.80
33841;DHT22;20142;28.494;-16.312;2024-02-23T06:25:55;15.60;90.40
33841;DHT22;20142;28.494;-16.312;2024-02-23T06:30:57;15.60;90.80
33841;DHT22;20142;28.494;-16.312;2024-02-23T06:35:59;15.60;90.90
33841;DHT22;20142;28.494;-16.312;2024-02-23T06:41:00;15.60;90.50
33841;DHT22;20142;28.494;-16.312;2024-02-23T06:46:09;15.60;90.70
33841;DHT22;20142;28.494;-16.312;2024-02-23T06:51:11;15.60;90.40
33841;DHT22;20142;28.494;-16.312;2024-02-23T06:56:13;15.60;90.40
33841;DHT22;20142;28.494;-16.312;2024-02-23T07:01:15;15.60;90.20
33841;DHT22;20142;28.494;-16.312;2024-02-23T07:06:17;15.50;89.90
33841;DHT22;20142;28.494;-16.312;2024-02-23T07:11:19;15.60;89.60
33841;DHT22;20142;28.494;-16.312;2024-02-23T07:16:21;15.60;89.80
33841;DHT22;20142;28.494;-16.312;2024-02-23T07:21:23;15.60;89.80
33841;DHT22;20142;28.494;-16.312;2024-02-23T07:26:25;15.70;89.50
33841;DHT22;20142;28.494;-16.312;2024-02-23T07:31:30;15.60;89.40
33841;DHT22;20142;28.494;-16.312;2024-02-23T07:36:33;15.60;89.10
33841;DHT22;20142;28.494;-16.312;2024-02-23T07:41:35;15.60;89.10
33841;DHT22;20142;28.494;-16.312;2024-02-23T07:46:37;15.60;89.50
33841;DHT22;20142;28.494;-16.312;2024-02-23T07:51:42;15.70;89.40
33841;DHT22;20142;28.494;-16.312;2024-02-23T07:56:44;15.70;89.20
33841;DHT22;20142;28.494;-16.312;2024-02-23T08:01:46;15.70;89.40
33841;DHT22;20142;28.494;-16.312;2024-02-23T08:06:49;15.90;89.40
33841;DHT22;20142;28.494;-16.312;2024-02-23T08:11:52;15.90;89.70
33841;DHT22;20142;28.494;-16.312;2024-02-23T08:16:53;15.90;89.50
33841;DHT22;20142;28.494;-16.312;2024-02-23T08:21:55;15.90;89.60
33841;DHT22;20142;28.494;-16.312;2024-02-23T08:26:58;16.00;89.50
33841;DHT22;20142;28.494;-16.312;2024-02-23T08:32:00;16.10;89.30
33841;DHT22;20142;28.494;-16.312;2024-02-23T08:37:02;16.20;88.80
33841;DHT22;20142;28.494;-16.312;2024-02-23T08:42:03;16.40;88.00
33841;DHT22;20142;28.494;-16.312;2024-02-23T08:47:05;16.40;87.80
33841;DHT22;20142;28.494;-16.312;2024-02-23T08:52:07;16.70;87.00
33841;DHT22;20142;28.494;-16.312;2024-02-23T08:57:09;16.90;86.50
33841;DHT22;20142;28.494;-16.312;2024-02-23T09:02:11;17.10;86.30
33841;DHT22;20142;28.494;-16.312;2024-02-23T09:07:13;17.40;85.80
33841;DHT22;20142;28.494;-16.312;2024-02-23T09:12:15;17.50;85.50
33841;DHT22;20142;28.494;-16.312;2024-02-23T09:17:18;17.60;85.30
33841;DHT22;20142;28.494;-16.312;2024-02-23T09:22:21;17.80;85.40
33841;DHT22;20142;28.494;-16.312;2024-02-23T09:27:23;17.90;84.90
33841;DHT22;20142;28.494;-16.312;2024-02-23T09:32:25;18.00;84.70
33841;DHT22;20142;28.494;-16.312;2024-02-23T09:37:28;18.10;84.50
33841;DHT22;20142;28.494;-16.312;2024-02-23T09:42:30;18.30;83.70
33841;DHT22;20142;28.494;-16.312;2024-02-23T09:47:33;18.40;83.70
33841;DHT22;20142;28.494;-16.312;2024-02-23T09:52:35;18.50;83.20
33841;DHT22;20142;28.494;-16.312;2024-02-23T09:57:38;18.80;83.50
33841;DHT22;20142;28.494;-16.312;2024-02-23T10:02:42;19.10;83.40
33841;DHT22;20142;28.494;-16.312;2024-02-23T10:07:44;18.70;82.80
33841;DHT22;20142;28.494;-16.312;2024-02-23T10:12:47;18.80;83.00
33841;DHT22;20142;28.494;-16.312;2024-02-23T10:17:49;19.00;83.10
33841;DHT22;20142;28.494;-16.312;2024-02-23T10:22:51;19.00;82.60
33841;DHT22;20142;28.494;-16.312;2024-02-23T10:27:54;19.10;82.70
33841;DHT22;20142;28.494;-16.312;2024-02-23T10:32:57;19.20;82.50
33841;DHT22;20142;28.494;-16.312;2024-02-23T10:38:00;19.50;82.70
33841;DHT22;20142;28.494;-16.312;2024-02-23T10:43:03;19.70;81.90
33841;DHT22;20142;28.494;-16.312;2024-02-23T10:48:10;19.80;81.70
33841;DHT22;20142;28.494;-16.312;2024-02-23T10:53:13;19.90;81.30
33841;DHT22;20142;28.494;-16.312;2024-02-23T10:58:15;20.20;81.50
33841;DHT22;20142;28.494;-16.312;2024-02-23T11:03:17;19.80;81.20
33841;DHT22;20142;28.494;-16.312;2024-02-23T11:08:21;19.70;81.20
33841;DHT22;20142;28.494;-16.312;2024-02-23T11:13:35;19.40;81.10
33841;DHT22;20142;28.494;-16.312;2024-02-23T11:18:40;19.30;81.50
33841;DHT22;20142;28.494;-16.312;2024-02-23T11:23:48;19.40;82.00
33841;DHT22;20142;28.494;-16.312;2024-02-23T11:28:51;19.60;81.80
33841;DHT22;20142;28.494;-16.312;2024-02-23T11:33:56;19.60;81.40
33841;DHT22;20142;28.494;-16.312;2024-02-23T11:38:59;19.60;81.70
33841;DHT22;20142;28.494;-16.312;2024-02-23T11:44:01;19.70;81.90
33841;DHT22;20142;28.494;-16.312;2024-02-23T11:49:04;19.90;82.20
33841;DHT22;20142;28.494;-16.312;2024-02-23T11:54:06;20.00;81.90
33841;DHT22;20142;28.494;-16.312;2024-02-23T11:59:08;19.60;81.60
33841;DHT22;20142;28.494;-16.312;2024-02-23T12:04:10;19.60;82.30
33841;DHT22;20142;28.494;-16.312;2024-02-23T12:09:13;19.50;82.40
33841;DHT22;20142;28.494;-16.312;2024-02-23T12:14:16;19.50;82.80
33841;DHT22;20142;28.494;-16.312;2024-02-23T12:19:18;19.70;82.40
33841;DHT22;20142;28.494;-16.312;2024-02-23T12:24:20;19.30;83.00
33841;DHT22;20142;28.494;-16.312;2024-02-23T12:29:23;19.10;83.60
33841;DHT22;20142;28.494;-16.312;2024-02-23T12:34:25;19.10;84.20
33841;DHT22;20142;28.494;-16.312;2024-02-23T12:39:27;19.10;84.20
33841;DHT22;20142;28.494;-16.312;2024-02-23T12:44:29;18.90;85.70
33841;DHT22;20142;28.494;-16.312;2024-02-23T12:49:31;19.00;86.40
33841;DHT22;20142;28.494;-16.312;2024-02-23T12:54:32;18.50;87.40
33841;DHT22;20142;28.494;-16.312;2024-02-23T12:59:34;18.20;88.40
33841;DHT22;20142;28.494;-16.312;2024-02-23T13:04:36;18.00;89.90
33841;DHT22;20142;28.494;-16.312;2024-02-23T13:09:37;18.00;90.50
33841;DHT22;20142;28.494;-16.312;2024-02-23T13:14:39;18.40;90.30
33841;DHT22;20142;28.494;-16.312;2024-02-23T13:19:41;19.10;90.10
33841;DHT22;20142;28.494;-16.312;2024-02-23T13:24:43;19.30;89.00
33841;DHT22;20142;28.494;-16.312;2024-02-23T13:29:44;19.60;88.50
33841;DHT22;20142;28.494;-16.312;2024-02-23T13:34:46;19.90;88.10
33841;DHT22;20142;28.494;-16.312;2024-02-23T13:39:47;19.70;87.50
33841;DHT22;20142;28.494;-16.312;2024-02-23T13:44:49;19.40;87.50
33841;DHT22;20142;28.494;-16.312;2024-02-23T13:49:51;19.90;88.50
33841;DHT22;20142;28.494;-16.312;2024-02-23T13:54:53;20.70;86.40
33841;DHT22;20142;28.494;-16.312;2024-02-23T13:59:54;21.00;84.30
33841;DHT22;20142;28.494;-16.312;2024-02-23T14:05:01;21.10;84.00
33841;DHT22;20142;28.494;-16.312;2024-02-23T14:10:08;21.00;83.90
33841;DHT22;20142;28.494;-16.312;2024-02-23T14:15:10;21.00;83.30
33841;DHT22;20142;28.494;-16.312;2024-02-23T14:20:11;20.40;84.20
33841;DHT22;20142;28.494;-16.312;2024-02-23T14:25:13;20.20;86.10
33841;DHT22;20142;28.494;-16.312;2024-02-23T14:30:15;19.80;86.40
33841;DHT22;20142;28.494;-16.312;2024-02-23T14:35:17;19.90;87.30
33841;DHT22;20142;28.494;-16.312;2024-02-23T14:40:18;20.20;86.50
33841;DHT22;20142;28.494;-16.312;2024-02-23T14:45:20;20.00;87.00
33841;DHT22;20142;28.494;-16.312;2024-02-23T14:50:24;19.70;87.30
33841;DHT22;20142;28.494;-16.312;2024-02-23T14:55:26;19.20;88.20
33841;DHT22;20142;28.494;-16.312;2024-02-23T15:00:27;18.40;89.10
33841;DHT22;20142;28.494;-16.312;2024-02-23T15:05:31;18.50;90.50
33841;DHT22;20142;28.494;-16.312;2024-02-23T15:10:32;18.40;90.60
33841;DHT22;20142;28.494;-16.312;2024-02-23T15:15:34;18.10;91.70
33841;DHT22;20142;28.494;-16.312;2024-02-23T15:20:40;17.90;92.50
33841;DHT22;20142;28.494;-16.312;2024-02-23T15:25:42;17.90;93.00
33841;DHT22;20142;28.494;-16.312;2024-02-23T15:30:44;17.50;93.00
33841;DHT22;20142;28.494;-16.312;2024-02-23T15:35:46;17.20;94.10
33841;DHT22;20142;28.494;-16.312;2024-02-23T15:40:48;17.10;95.50
33841;DHT22;20142;28.494;-16.312;2024-02-23T15:45:50;17.10;95.30
33841;DHT22;20142;28.494;-16.312;2024-02-23T15:50:51;16.80;96.00
33841;DHT22;20142;28.494;-16.312;2024-02-23T15:55:53;17.00;96.60
33841;DHT22;20142;28.494;-16.312;2024-02-23T16:00:55;17.00;96.60
33841;DHT22;20142;28.494;-16.312;2024-02-23T16:05:57;16.90;97.10
33841;DHT22;20142;28.494;-16.312;2024-02-23T16:10:59;17.10;97.40
33841;DHT22;20142;28.494;-16.312;2024-02-23T16:16:00;17.60;97.20
33841;DHT22;20142;28.494;-16.312;2024-02-23T16:21:02;17.60;97.00
33841;DHT22;20142;28.494;-16.312;2024-02-23T16:26:05;17.70;97.20
33841;DHT22;20142;28.494;-16.312;2024-02-23T16:31:06;17.80;97.10
33841;DHT22;20142;28.494;-16.312;2024-02-23T16:36:08;17.80;96.60
33841;DHT22;20142;28.494;-16.312;2024-02-23T16:41:10;17.50;96.20
33841;DHT22;20142;28.494;-16.312;2024-02-23T16:46:11;17.20;96.80
33841;DHT22;20142;28.494;-16.312;2024-02-23T16:51:13;16.80;97.00
33841;DHT22;20142;28.494;-16.312;2024-02-23T16:56:15;16.60;97.50
33841;DHT22;20142;28.494;-16.312;2024-02-23T17:01:17;16.40;97.90
33841;DHT22;20142;28.494;-16.312;2024-02-23T17:06:19;16.40;98.40
33841;DHT22;20142;28.494;-16.312;2024-02-23T17:11:21;16.30;98.60
33841;DHT22;20142;28.494;-16.312;2024-02-23T17:16:22;16.30;98.90
33841;DHT22;20142;28.494;-16.312;2024-02-23T17:21:28;16.20;98.50
33841;DHT22;20142;28.494;-16.312;2024-02-23T17:26:30;16.10;99.10
33841;DHT22;20142;28.494;-16.312;2024-02-23T17:31:31;16.20;99.50
33841;DHT22;20142;28.494;-16.312;2024-02-23T17:36:33;16.10;99.50
33841;DHT22;20142;28.494;-16.312;2024-02-23T17:41:35;16.00;99.50
33841;DHT22;20142;28.494;-16.312;2024-02-23T17:46:36;16.00;99.60
33841;DHT22;20142;28.494;-16.312;2024-02-23T17:51:38;16.00;99.40
33841;DHT22;20142;28.494;-16.312;2024-02-23T17:56:40;15.90;99.50
33841;DHT22;20142;28.494;-16.312;2024-02-23T18:01:41;15.80;99.90
33841;DHT22;20142;28.494;-16.312;2024-02-23T18:06:45;15.80;99.70
33841;DHT22;20142;28.494;-16.312;2024-02-23T18:11:46;15.80;99.90
33841;DHT22;20142;28.494;-16.312;2024-02-23T18:16:49;15.80;99.50
33841;DHT22;20142;28.494;-16.312;2024-02-23T18:21:50;15.60;99.90
33841;DHT22;20142;28.494;-16.312;2024-02-23T18:26:52;15.70;99.80
33841;DHT22;20142;28.494;-16.312;2024-02-23T18:31:54;15.70;99.90
33841;DHT22;20142;28.494;-16.312;2024-02-23T18:36:56;15.70;99.70
33841;DHT22;20142;28.494;-16.312;2024-02-23T18:41:57;15.80;99.80
33841;DHT22;20142;28.494;-16.312;2024-02-23T18:46:59;15.80;99.20
33841;DHT22;20142;28.494;-16.312;2024-02-23T18:52:01;15.70;99.00
33841;DHT22;20142;28.494;-16.312;2024-02-23T18:57:02;15.70;99.30
33841;DHT22;20142;28.494;-16.312;2024-02-23T19:02:05;15.70;99.40
33841;DHT22;20142;28.494;-16.312;2024-02-23T19:07:07;15.70;98.70
33841;DHT22;20142;28.494;-16.312;2024-02-23T19:12:08;15.60;98.70
33841;DHT22;20142;28.494;-16.312;2024-02-23T19:17:12;15.70;98.90
33841;DHT22;20142;28.494;-16.312;2024-02-23T19:22:13;15.70;98.40
33841;DHT22;20142;28.494;-16.312;2024-02-23T19:27:15;15.70;98.40
33841;DHT22;20142;28.494;-16.312;2024-02-23T19:32:17;15.70;98.10
33841;DHT22;20142;28.494;-16.312;2024-02-23T19:37:18;15.70;98.10
33841;DHT22;20142;28.494;-16.312;2024-02-23T19:42:20;15.70;98.30
33841;DHT22;20142;28.494;-16.312;2024-02-23T19:47:22;15.70;98.00
33841;DHT22;20142;28.494;-16.312;2024-02-23T19:52:24;15.70;98.10
33841;DHT22;20142;28.494;-16.312;2024-02-23T19:57:26;15.60;97.90
33841;DHT22;20142;28.494;-16.312;2024-02-23T20:02:27;15.70;97.80
33841;DHT22;20142;28.494;-16.312;2024-02-23T20:07:29;15.70;97.70
33841;DHT22;20142;28.494;-16.312;2024-02-23T20:12:31;15.60;97.40
33841;DHT22;20142;28.494;-16.312;2024-02-23T20:17:33;15.40;97.80
33841;DHT22;20142;28.494;-16.312;2024-02-23T20:22:34;15.10;98.00
33841;DHT22;20142;28.494;-16.312;2024-02-23T20:27:36;15.10;98.70
33841;DHT22;20142;28.494;-16.312;2024-02-23T20:32:38;15.20;98.80
33841;DHT22;20142;28.494;-16.312;2024-02-23T20:37:40;15.20;98.80
33841;DHT22;20142;28.494;-16.312;2024-02-23T20:42:43;15.30;98.50
33841;DHT22;20142;28.494;-16.312;2024-02-23T20:47:47;15.30;98.20
33841;DHT22;20142;28.494;-16.312;2024-02-23T20:52:49;15.30;97.80
33841;DHT22;20142;28.494;-16.312;2024-02-23T20:57:51;15.30;97.50
33841;DHT22;20142;28.494;-16.312;2024-02-23T21:02:55;15.30;97.10
33841;DHT22;20142;28.494;-16.312;2024-02-23T21:07:57;15.30;96.50
33841;DHT22;20142;28.494;-16.312;2024-02-23T21:12:59;15.30;96.20
33841;DHT22;20142;28.494;-16.312;2024-02-23T21:18:02;15.40;96.00
33841;DHT22;20142;28.494;-16.312;2024-02-23T21:23:04;15.30;96.00
33841;DHT22;20142;28.494;-16.312;2024-02-23T21:28:05;15.30;95.80
33841;DHT22;20142;28.494;-16.312;2024-02-23T21:33:09;15.30;95.60
33841;DHT22;20142;28.494;-16.312;2024-02-23T21:38:11;15.20;95.70
33841;DHT22;20142;28.494;-16.312;2024-02-23T21:43:13;15.10;96.30
33841;DHT22;20142;28.494;-16.312;2024-02-23T21:48:15;15.10;96.40
33841;DHT22;20142;28.494;-16.312;2024-02-23T21:53:17;15.10;96.40
33841;DHT22;20142;28.494;-16.312;2024-02-23T21:58:18;15.10;95.90
33841;DHT22;20142;28.494;-16.312;2024-02-23T22:03:20;15.20;95.90
33841;DHT22;20142;28.494;-16.312;2024-02-23T22:08:23;15.20;95.40
33841;DHT22;20142;28.494;-16.312;2024-02-23T22:13:25;15.10;95.70
33841;DHT22;20142;28.494;-16.312;2024-02-23T22:18:26;15.10;96.10
33841;DHT22;20142;28.494;-16.312;2024-02-23T22:23:33;15.00;96.40
33841;DHT22;20142;28.494;-16.312;2024-02-23T22:28:34;14.90;97.10
33841;DHT22;20142;28.494;-16.312;2024-02-23T22:33:36;14.90;97.40
33841;DHT22;20142;28.494;-16.312;2024-02-23T22:38:38;14.90;97.50
33841;DHT22;20142;28.494;-16.312;2024-02-23T22:43:39;14.90;97.40
33841;DHT22;20142;28.494;-16.312;2024-02-23T22:48:41;14.90;97.70
33841;DHT22;20142;28.494;-16.312;2024-02-23T22:53:43;15.00;97.90
33841;DHT22;20142;28.494;-16.312;2024-02-23T22:58:45;15.10;97.80
33841;DHT22;20142;28.494;-16.312;2024-02-23T23:03:46;15.10;97.40
33841;DHT22;20142;28.494;-16.312;2024-02-23T23:08:48;15.10;97.40
33841;DHT22;20142;28.494;-16.312;2024-02-23T23:13:50;15.10;97.10
33841;DHT22;20142;28.494;-16.312;2024-02-23T23:18:51;15.10;97.30
33841;DHT22;20142;28.494;-16.312;2024-02-23T23:23:53;15.10;97.10
33841;DHT22;20142;28.494;-16.312;2024-02-23T23:28:55;15.00;97.20
33841;DHT22;20142;28.494;-16.312;2024-02-23T23:33:56;15.00;96.90
33841;DHT22;20142;28.494;-16.312;2024-02-23T23:38:59;15.00;96.90
33841;DHT22;20142;28.494;-16.312;2024-02-23T23:44:00;15.10;96.50
33841;DHT22;20142;28.494;-16.312;2024-02-23T23:49:02;15.10;95.70
33841;DHT22;20142;28.494;-16.312;2024-02-23T23:54:04;15.00;95.10
33841;DHT22;20142;28.494;-16.312;2024-02-23T23:59:06;14.90;94.70
